Aérodrome :
LOGIN :

S'inscrire | Disclaimer

   EN    FR    IT 

 










Légende :    VFR   VFR Marginal   IFR   IFR Intensif   IFR Très Intensif
Visi : 
Plafond : 
>= 8 km
>= 3000ft
5 à 8 km
1000 à 3000 ft
1500m à 5 km
500 à 1000 ft
800 à 1500m
200 à 500 ft
< 800m
< 200 ft
Symboles :   Orages  Brouillard  Fortes neiges  Fortes précipitations  Vent > 20 kt
SIGMETs :   Divers  Orages  Givrage  Turbulence  Onde Orograph.  Cendres Volcan.






- Altitude de l'aérodrome : 461 ft
- Code IATA : WIE


ETOU - Wiesbaden Army

METARs EXPIRÉS :
  • 090455Z AUTO 00000KT 9999 FEW024 OVC055 01/00 A2970 RMK AO2 SLP067 T00130001
  • 091855Z AUTO 36005KT 9999 OVC055 01/M03 A2968 RMK AO2 SLP061 T00061026
  • 091755Z AUTO 35005KT 9999 OVC050 01/M02 A2968 RMK AO2 SLP061 T00071024 10038 20007 52007 $
  • 091655Z AUTO 34005KT 9999 OVC050 01/M02 A2967 RMK AO2 SLP057 T00101017 $

TAF TAF ETOU
Valide du 09 à 13h jusqu'au 10 à 19h UTC


091300Z 0913/1019 VRB06KT 9999 FEW015 BKN030 QNH2965INS
BECMG 0914/0915 03006KT 9999 BKN025 QNH2965INS
BECMG 1002/1003 VRB06KT 8000 -SHSN SCT015 BKN020 QNH2966INS
BECMG 1009/1010 01009KT 9999 BKN010 QNH2970INS
BECMG 1013/1015 35009KT 9999 BKN025 OVC030 QNH2979INS TX04/0914Z TNM02/1001Z



MET'MAP, la Météo Aéronautique d'un coup d'oeil ! - Copyright ORBIFLY Décembre 2007 - Disclaimer

ORBIFLY MET'MAP TEAM :

Programmation & Développement : Alexandra Zaïnal
Sur une idée originale de : Baudouin d'Aumeries
Soutien technique & logistique : Manuel Goepfert
Assistance : Marc-Olivier Méhu




SOURCES & CREDITS :

   NOAA